Anchor Point, AK (99556)

9:41 PM AKDT on July 25, 2016 (GMT -0800)
Wilderness Greenhouse | | Change Station

Elev 335 ft 59.72 °N, 151.72 °W | Updated 7 minutes ago

Overcast
Overcast
58.1 °F
Feels Like 58.1 °F
N
0.0
Wind Variable Wind from SSW

Today
High -- | Low -- °F
--% Chance of Precip.
Yesterday
High -- | Low -- °F
Precip. -- in
Pressure 29.83 in
Visibility 10.0 miles
Clouds Few 4900 ft
Mostly Cloudy 6000 ft
Overcast 11000 ft
Dew Point 57 °F
Humidity 96%
Rainfall 0.35 in
Snow Depth Not available.
5:35 AM 10:50 PM
Waning Gibbous, 58% visible
METAR PAHO 260453Z 00000KT 10SM FEW049 BKN060 OVC110 16/09 A2982 RMK AO2 SLP099 T01560094
Pressure 29.83 in
Visibility 10.0 miles
Clouds Few 4900 ft
Mostly Cloudy 6000 ft
Overcast 11000 ft
Dew Point 57 °F
Humidity 96%
Rainfall 0.35 in
Snow Depth Not available.
5:35 AM 10:50 PM
Waning Gibbous, 58% visible
METAR PAHO 260453Z 00000KT 10SM FEW049 BKN060 OVC110 16/09 A2982 RMK AO2 SLP099 T01560094

10-Day Weather Forecast

Almanac

Astronomy

Jul. 25, 2016 Rise Set
Actual Time
Civil Twilight
Nautical Twilight
Astronomical Twilight
Moon
Length of Visible Light
Length of Day
Tomorrow will be .
, % of the Moon is Illuminated

Today's Extremes

State Highs State Lows

Community

WunderPhotos

Upload Photos

1,927,547 photos uploaded!

WunderBlog® & News

Nearby

Air Quality

  Air Quality AQ Index Pollutant
Not available.

Snow Depth

Station Depth Elevation

Earthquake Activity

City Distance Mag. Time & Date
Minimum magnitude displayed is 2.5.

Coastal Water Temperatures

Place Temperature

Stations

Nearby Weather Stations

Station Location Temp. Windchill Dew Point Humidity Wind Precip. Elev Updated Type
                   

Watches & Warnings

There are currently no watches in effect.